createdAt,value
2023-01-29T00:00:22.446Z,5.07
2023-01-29T00:02:50.949Z,5.07
2023-01-29T00:05:28.325Z,6.03
2023-01-29T00:07:57.550Z,4.77
2023-01-29T00:10:26.895Z,5.90
2023-01-29T00:12:55.823Z,5.23
2023-01-29T00:15:25.698Z,5.33
2023-01-29T00:17:54.498Z,5.17
2023-01-29T00:20:22.950Z,5.10
2023-01-29T00:22:51.385Z,5.20
2023-01-29T00:25:19.863Z,4.47
2023-01-29T00:27:48.291Z,4.90
2023-01-29T00:30:19.805Z,5.03
2023-01-29T00:32:49.957Z,4.53
2023-01-29T00:35:18.487Z,4.87
2023-01-29T00:37:47.143Z,4.63
2023-01-29T00:40:16.074Z,4.33
2023-01-29T00:43:03.489Z,4.83
2023-01-29T00:45:32.050Z,4.67
2023-01-29T00:48:01.981Z,4.60
2023-01-29T00:50:30.556Z,4.43
2023-01-29T00:52:59.212Z,4.53
2023-01-29T00:55:28.006Z,3.50
2023-01-29T00:57:56.535Z,3.87
2023-01-29T01:00:26.209Z,3.43
2023-01-29T01:03:08.913Z,3.23
2023-01-29T01:05:39.278Z,3.60
2023-01-29T01:08:28.807Z,3.47
2023-01-29T01:11:02.252Z,3.10
2023-01-29T01:13:32.345Z,3.27
2023-01-29T01:16:00.924Z,3.37
2023-01-29T01:18:31.908Z,3.77
2023-01-29T01:21:01.708Z,3.80
2023-01-29T01:23:30.110Z,3.40
2023-01-29T01:25:59.141Z,3.27
2023-01-29T01:28:28.203Z,3.60
2023-01-29T01:30:56.704Z,3.80
2023-01-29T01:33:25.479Z,3.87
2023-01-29T01:35:53.983Z,3.73
2023-01-29T01:38:23.804Z,3.87
2023-01-29T01:40:52.219Z,3.80
2023-01-29T01:43:20.562Z,3.87
2023-01-29T01:45:49.693Z,4.23
2023-01-29T01:48:22.967Z,3.53
2023-01-29T01:50:55.100Z,3.87
2023-01-29T01:53:34.829Z,3.97
2023-01-29T01:56:07.844Z,3.80
2023-01-29T01:58:41.327Z,4.30
2023-01-29T02:01:10.871Z,4.17
2023-01-29T02:04:09.896Z,3.70
2023-01-29T02:06:59.775Z,4.10
2023-01-29T02:09:35.768Z,4.30
2023-01-29T02:12:06.938Z,4.10
2023-01-29T02:14:40.168Z,4.60
2023-01-29T02:17:11.714Z,4.73
2023-01-29T02:19:51.661Z,4.93
2023-01-29T02:22:55.560Z,4.53
2023-01-29T02:26:16.554Z,4.93
2023-01-29T02:28:53.742Z,4.83
2023-01-29T02:31:31.815Z,5.37
2023-01-29T02:34:13.060Z,5.23
2023-01-29T02:36:48.948Z,5.87
2023-01-29T02:39:25.184Z,5.40
2023-01-29T02:42:02.880Z,5.30
2023-01-29T02:44:41.156Z,5.93
2023-01-29T02:47:18.903Z,5.47
2023-01-29T02:49:51.727Z,5.70
2023-01-29T02:52:24.569Z,5.10
2023-01-29T02:54:59.940Z,5.20
2023-01-29T02:57:33.041Z,5.00
2023-01-29T03:00:10.478Z,5.23
2023-01-29T03:02:46.133Z,5.10
2023-01-29T03:05:19.517Z,5.50
2023-01-29T03:07:55.668Z,5.23
2023-01-29T03:10:31.336Z,6.20
2023-01-29T03:13:05.853Z,5.50
2023-01-29T03:15:47.031Z,5.57
2023-01-29T03:18:19.427Z,5.60
2023-01-29T03:20:53.494Z,5.70
2023-01-29T03:23:48.336Z,5.00
2023-01-29T03:26:36.998Z,5.07
2023-01-29T03:29:24.566Z,5.37
2023-01-29T03:32:06.649Z,5.67
2023-01-29T03:34:44.065Z,5.43
2023-01-29T03:37:19.955Z,4.70
2023-01-29T03:39:48.588Z,5.87
2023-01-29T03:42:25.814Z,4.87
2023-01-29T03:45:08.404Z,5.60
2023-01-29T03:47:47.385Z,5.90
2023-01-29T03:50:39.367Z,5.83
2023-01-29T03:53:18.231Z,6.07
2023-01-29T03:55:58.397Z,5.63
2023-01-29T03:58:35.998Z,5.40
2023-01-29T04:01:12.265Z,5.63
2023-01-29T04:03:48.823Z,5.40
2023-01-29T04:06:22.310Z,5.10
2023-01-29T04:08:58.387Z,5.43
2023-01-29T04:11:28.538Z,5.63
2023-01-29T04:13:58.548Z,5.80
2023-01-29T04:16:32.330Z,5.23
2023-01-29T04:19:02.232Z,5.33
2023-01-29T04:21:33.022Z,4.83
2023-01-29T04:24:01.585Z,5.60
2023-01-29T04:26:56.858Z,5.07
2023-01-29T04:29:48.700Z,5.07
2023-01-29T04:32:23.602Z,5.07
2023-01-29T04:35:03.570Z,5.70
2023-01-29T04:37:41.170Z,4.90
2023-01-29T04:40:21.603Z,4.40
2023-01-29T04:43:03.138Z,5.00
2023-01-29T04:45:47.405Z,4.60
2023-01-29T04:48:23.658Z,4.60
2023-01-29T04:51:02.378Z,5.10
2023-01-29T04:53:40.124Z,4.90
2023-01-29T04:56:16.252Z,5.30
2023-01-29T04:58:49.894Z,4.87
2023-01-29T05:01:21.063Z,5.20
2023-01-29T05:03:54.930Z,5.17
2023-01-29T05:06:26.569Z,5.03
2023-01-29T05:08:56.485Z,5.33
2023-01-29T05:11:26.432Z,5.20
2023-01-29T05:13:57.130Z,5.40
2023-01-29T05:16:29.490Z,5.03
2023-01-29T05:18:58.051Z,4.97
2023-01-29T05:21:29.051Z,6.47
2023-01-29T05:24:16.534Z,5.50
2023-01-29T05:27:05.593Z,5.27
2023-01-29T05:29:34.060Z,5.67
2023-01-29T05:32:03.628Z,5.23
2023-01-29T05:34:32.042Z,6.30
2023-01-29T05:37:01.761Z,6.47
2023-01-29T05:39:30.334Z,6.30
2023-01-29T05:41:58.903Z,5.93
2023-01-29T05:44:27.338Z,5.73
2023-01-29T05:46:55.734Z,6.10
2023-01-29T05:49:24.267Z,5.37
2023-01-29T05:51:52.659Z,6.47
2023-01-29T05:54:22.472Z,6.40
2023-01-29T05:56:51.062Z,6.13
2023-01-29T05:59:19.540Z,6.23
2023-01-29T06:01:48.095Z,6.53
2023-01-29T06:04:16.524Z,5.80
2023-01-29T06:06:44.903Z,5.90
2023-01-29T06:09:13.597Z,6.30
2023-01-29T06:11:43.506Z,6.10
2023-01-29T06:14:11.896Z,6.03
2023-01-29T06:16:40.267Z,6.00
2023-01-29T06:19:08.726Z,5.50
2023-01-29T06:21:37.155Z,6.20
2023-01-29T06:24:06.347Z,6.93
2023-01-29T06:26:34.838Z,6.20
2023-01-29T06:29:04.545Z,6.60
2023-01-29T06:31:38.833Z,6.23
2023-01-29T06:34:07.981Z,6.00
2023-01-29T06:36:36.551Z,6.47
2023-01-29T06:39:05.653Z,6.23
2023-01-29T06:41:34.503Z,6.00
2023-01-29T06:44:04.460Z,5.83
2023-01-29T06:46:33.189Z,7.10
2023-01-29T06:49:01.701Z,6.70
2023-01-29T06:51:30.184Z,6.93
2023-01-29T06:53:58.776Z,6.33
2023-01-29T06:56:29.187Z,7.20
2023-01-29T06:58:57.654Z,7.47
2023-01-29T07:01:36.184Z,7.10
2023-01-29T07:04:05.329Z,7.50
2023-01-29T07:06:34.326Z,6.57
2023-01-29T07:09:02.904Z,7.13
2023-01-29T07:11:32.090Z,7.23
2023-01-29T07:14:00.647Z,6.73
2023-01-29T07:16:30.426Z,6.80
2023-01-29T07:18:58.984Z,7.30
2023-01-29T07:21:28.178Z,6.40
2023-01-29T07:23:56.652Z,6.50
2023-01-29T07:26:25.117Z,6.40
2023-01-29T07:28:53.547Z,6.10
2023-01-29T07:31:22.993Z,6.47
2023-01-29T07:33:52.915Z,6.60
2023-01-29T07:36:21.487Z,6.40
2023-01-29T07:38:51.749Z,6.73
2023-01-29T07:41:20.636Z,6.27
2023-01-29T07:43:49.395Z,6.43
2023-01-29T07:46:17.904Z,6.33
2023-01-29T07:48:46.417Z,6.13
2023-01-29T07:51:18.184Z,6.83
2023-01-29T07:53:47.242Z,6.37
2023-01-29T07:56:15.873Z,6.07
2023-01-29T07:58:44.362Z,6.40
2023-01-29T08:01:12.947Z,6.23
2023-01-29T08:03:41.468Z,6.67
2023-01-29T08:06:09.985Z,6.13
2023-01-29T08:08:39.719Z,6.53
2023-01-29T08:11:08.158Z,6.30
2023-01-29T08:13:36.550Z,6.33
2023-01-29T08:16:06.850Z,6.50
2023-01-29T08:18:35.596Z,6.90
2023-01-29T08:21:05.196Z,5.97
2023-01-29T08:23:33.713Z,6.03
2023-01-29T08:26:04.548Z,6.20
2023-01-29T08:28:33.225Z,6.47
2023-01-29T08:31:01.887Z,6.17
2023-01-29T08:33:38.674Z,6.30
2023-01-29T08:36:09.199Z,7.07
2023-01-29T08:38:37.717Z,6.30
2023-01-29T08:41:08.467Z,6.00
2023-01-29T08:43:38.629Z,6.27
2023-01-29T08:46:08.463Z,6.37
2023-01-29T08:48:37.095Z,6.20
2023-01-29T08:51:05.889Z,6.00
2023-01-29T08:53:34.510Z,5.70
2023-01-29T08:56:07.766Z,5.37
2023-01-29T08:58:36.286Z,6.40
2023-01-29T09:01:09.374Z,5.80
2023-01-29T09:03:41.081Z,6.23
2023-01-29T09:06:11.754Z,6.80
2023-01-29T09:08:40.521Z,6.40
2023-01-29T09:11:10.740Z,6.27
2023-01-29T09:13:39.390Z,6.90
2023-01-29T09:16:08.854Z,6.77
2023-01-29T09:18:37.575Z,5.90
2023-01-29T09:21:06.906Z,6.30
2023-01-29T09:23:35.423Z,6.30
2023-01-29T09:26:04.208Z,6.33
2023-01-29T09:28:35.050Z,6.17
2023-01-29T09:31:04.098Z,6.30
2023-01-29T09:33:32.555Z,6.00
2023-01-29T09:36:01.081Z,6.10
2023-01-29T09:38:29.495Z,6.20
2023-01-29T09:41:09.991Z,6.57
2023-01-29T09:43:50.277Z,6.50
2023-01-29T09:46:26.073Z,5.93
2023-01-29T09:49:02.958Z,6.47
2023-01-29T09:51:41.732Z,6.47
2023-01-29T09:54:22.975Z,6.67
2023-01-29T09:56:56.334Z,6.70
2023-01-29T09:59:31.120Z,6.80
2023-01-29T10:02:18.700Z,6.80
2023-01-29T10:05:09.993Z,6.63
2023-01-29T10:08:28.439Z,6.53
2023-01-29T10:11:07.373Z,5.97
2023-01-29T10:13:49.569Z,7.07
2023-01-29T10:16:40.901Z,6.73
2023-01-29T10:19:53.929Z,6.60
2023-01-29T10:22:58.796Z,6.67
2023-01-29T10:25:27.393Z,6.43
2023-01-29T10:27:59.492Z,6.23
2023-01-29T10:30:34.712Z,6.47
2023-01-29T10:33:08.526Z,6.77
2023-01-29T10:35:42.487Z,6.73
2023-01-29T10:38:26.409Z,6.47
2023-01-29T10:41:08.174Z,6.70
2023-01-29T10:43:50.059Z,7.20
2023-01-29T10:46:32.971Z,6.90
2023-01-29T10:49:18.584Z,6.77
2023-01-29T10:52:05.766Z,7.13
2023-01-29T10:54:58.304Z,7.10
2023-01-29T10:57:46.375Z,7.53
2023-01-29T11:00:22.384Z,8.10
2023-01-29T11:02:53.098Z,6.80
2023-01-29T11:05:30.972Z,7.90
2023-01-29T11:08:08.306Z,7.70
2023-01-29T11:10:47.172Z,7.73
2023-01-29T11:13:17.486Z,7.33
2023-01-29T11:15:46.032Z,7.93
2023-01-29T11:18:16.331Z,7.47
2023-01-29T11:20:47.463Z,7.77
2023-01-29T11:23:28.900Z,7.40
2023-01-29T11:25:59.890Z,7.80
2023-01-29T11:28:40.256Z,7.33
2023-01-29T11:31:22.026Z,7.57
2023-01-29T11:33:53.220Z,7.83
2023-01-29T11:36:37.166Z,7.63
2023-01-29T11:39:20.736Z,7.80
2023-01-29T11:41:54.220Z,7.37
2023-01-29T11:44:30.112Z,7.07
2023-01-29T11:47:14.203Z,7.50
2023-01-29T11:49:48.009Z,7.10
2023-01-29T11:52:20.902Z,7.77
2023-01-29T11:54:54.705Z,7.67
2023-01-29T11:57:34.135Z,8.07
2023-01-29T12:00:06.691Z,7.03
2023-01-29T12:02:39.066Z,8.30
2023-01-29T12:05:17.338Z,7.40
2023-01-29T12:07:51.850Z,8.37
2023-01-29T12:10:35.619Z,7.73
2023-01-29T12:13:20.138Z,8.10
2023-01-29T12:15:49.980Z,7.87
2023-01-29T12:18:24.959Z,8.80
2023-01-29T12:21:01.238Z,8.37
2023-01-29T12:23:41.729Z,8.80
2023-01-29T12:26:17.974Z,8.47
2023-01-29T12:28:55.443Z,8.00
2023-01-29T12:31:34.425Z,9.53
2023-01-29T12:34:13.896Z,7.70
2023-01-29T12:36:53.255Z,8.97
2023-01-29T12:39:23.563Z,8.93
2023-01-29T12:41:59.215Z,8.90
2023-01-29T12:44:35.140Z,9.17
2023-01-29T12:47:08.118Z,9.07
2023-01-29T12:49:41.056Z,8.80
2023-01-29T12:52:16.606Z,9.23
2023-01-29T12:54:55.045Z,8.70
2023-01-29T12:57:29.946Z,9.70
2023-01-29T13:00:06.215Z,9.63
2023-01-29T13:02:41.229Z,9.87
2023-01-29T13:05:23.360Z,9.13
2023-01-29T13:07:59.432Z,9.57
2023-01-29T13:10:34.230Z,9.87
2023-01-29T13:13:08.454Z,9.43
2023-01-29T13:15:40.778Z,9.53
2023-01-29T13:18:41.453Z,9.47
2023-01-29T13:21:19.411Z,9.60
2023-01-29T13:23:52.751Z,9.77
2023-01-29T13:26:24.347Z,9.97
2023-01-29T13:28:53.908Z,10.07
2023-01-29T13:31:33.143Z,10.13
2023-01-29T13:34:15.891Z,10.47
2023-01-29T13:36:47.410Z,10.93
2023-01-29T13:39:32.177Z,11.30
2023-01-29T13:42:05.233Z,10.47
2023-01-29T13:44:39.863Z,10.67
2023-01-29T13:47:12.540Z,11.37
2023-01-29T13:49:45.262Z,11.40
2023-01-29T13:52:33.166Z,10.17
2023-01-29T13:55:05.849Z,10.37
2023-01-29T13:57:54.724Z,11.33
2023-01-29T14:00:58.578Z,11.23
2023-01-29T14:04:05.928Z,10.67
2023-01-29T14:06:49.153Z,11.47
2023-01-29T14:10:03.607Z,11.43
2023-01-29T14:12:48.177Z,11.57
2023-01-29T14:15:32.867Z,11.67
2023-01-29T14:18:26.058Z,12.20
2023-01-29T14:21:06.669Z,12.83
2023-01-29T14:23:42.768Z,11.63
2023-01-29T14:26:33.287Z,12.60
2023-01-29T14:29:25.506Z,12.80
2023-01-29T14:32:10.535Z,13.30
2023-01-29T14:34:46.012Z,14.13
2023-01-29T14:37:25.638Z,12.83
2023-01-29T14:39:57.660Z,12.87
2023-01-29T14:42:33.315Z,13.30
2023-01-29T14:45:12.560Z,13.23
2023-01-29T14:48:21.592Z,12.37
2023-01-29T14:51:00.228Z,11.80
2023-01-29T14:53:54.406Z,11.73
2023-01-29T14:56:32.405Z,12.53
2023-01-29T14:59:19.109Z,12.80
2023-01-29T15:01:55.299Z,13.33
2023-01-29T15:04:28.601Z,13.10
2023-01-29T15:07:04.752Z,13.53
2023-01-29T15:09:41.804Z,13.40
2023-01-29T15:12:22.695Z,13.60
2023-01-29T15:15:00.668Z,13.40
2023-01-29T15:17:38.673Z,11.90
2023-01-29T15:20:30.395Z,11.47
2023-01-29T15:22:59.092Z,12.50
2023-01-29T15:25:33.963Z,12.00
2023-01-29T15:28:08.511Z,12.67
2023-01-29T15:30:38.747Z,11.83
2023-01-29T15:33:12.176Z,11.67
2023-01-29T15:35:43.619Z,12.03
2023-01-29T15:38:19.269Z,12.03
2023-01-29T15:40:56.521Z,12.73
2023-01-29T15:43:28.436Z,12.33
2023-01-29T15:46:00.899Z,11.83
2023-01-29T15:48:36.049Z,10.97
2023-01-29T15:51:08.581Z,11.20
2023-01-29T15:53:43.282Z,12.63
2023-01-29T15:56:14.305Z,11.03
2023-01-29T15:58:44.079Z,11.37
2023-01-29T16:01:12.989Z,11.93
2023-01-29T16:03:44.305Z,12.07
2023-01-29T16:06:13.726Z,12.07
2023-01-29T16:08:43.604Z,13.00
2023-01-29T16:11:12.390Z,12.73
2023-01-29T16:13:43.329Z,13.93
2023-01-29T16:16:25.339Z,12.97
2023-01-29T16:19:00.844Z,13.20
2023-01-29T16:21:34.161Z,13.70
2023-01-29T16:24:09.852Z,15.40
2023-01-29T16:26:40.955Z,15.00
2023-01-29T16:29:13.093Z,14.43
2023-01-29T16:31:43.665Z,14.23
2023-01-29T16:34:26.890Z,14.83
2023-01-29T16:36:56.670Z,14.53
2023-01-29T16:39:29.080Z,14.63
2023-01-29T16:42:25.739Z,14.30
2023-01-29T16:45:01.140Z,14.90
2023-01-29T16:47:35.069Z,14.67
2023-01-29T16:50:28.552Z,14.17
2023-01-29T16:53:01.915Z,14.73
2023-01-29T16:55:38.550Z,13.77
2023-01-29T16:58:17.095Z,14.80
2023-01-29T17:00:48.256Z,14.10
2023-01-29T17:03:19.399Z,15.47
2023-01-29T17:05:51.021Z,15.40
2023-01-29T17:08:26.667Z,15.10
2023-01-29T17:10:55.374Z,14.23
2023-01-29T17:13:31.738Z,16.00
2023-01-29T17:16:03.824Z,16.03
2023-01-29T17:18:32.426Z,16.47
2023-01-29T17:21:02.304Z,16.13
2023-01-29T17:23:30.926Z,14.70
2023-01-29T17:26:00.538Z,15.93
2023-01-29T17:28:29.378Z,14.87
2023-01-29T17:31:06.159Z,15.00
2023-01-29T17:33:35.325Z,15.30
2023-01-29T17:36:06.156Z,15.47
2023-01-29T17:38:34.997Z,15.30
2023-01-29T17:41:11.674Z,15.73
2023-01-29T17:43:40.071Z,17.07
2023-01-29T17:46:14.583Z,15.20
2023-01-29T17:48:43.965Z,15.63
2023-01-29T17:51:16.844Z,15.53
2023-01-29T17:53:47.491Z,15.13
2023-01-29T17:56:18.739Z,15.37
2023-01-29T17:58:47.217Z,14.77
2023-01-29T18:01:16.444Z,14.63
2023-01-29T18:03:44.927Z,15.57
2023-01-29T18:06:27.242Z,15.63
2023-01-29T18:08:56.415Z,15.33
2023-01-29T18:11:25.432Z,14.33
2023-01-29T18:13:53.903Z,15.43
2023-01-29T18:16:22.897Z,15.27
2023-01-29T18:18:53.050Z,15.33
2023-01-29T18:21:22.805Z,14.60
2023-01-29T18:23:51.401Z,14.00
2023-01-29T18:26:19.974Z,15.27
2023-01-29T18:28:48.332Z,14.40
2023-01-29T18:31:16.779Z,15.67
2023-01-29T18:33:45.442Z,15.13
2023-01-29T18:36:15.872Z,15.20
2023-01-29T18:38:45.873Z,16.43
2023-01-29T18:41:14.623Z,15.60
2023-01-29T18:43:44.309Z,14.67
2023-01-29T18:46:14.053Z,14.87
2023-01-29T18:48:43.105Z,16.03
2023-01-29T18:51:11.728Z,14.10
2023-01-29T18:53:40.203Z,15.03
2023-01-29T18:56:12.283Z,15.47
2023-01-29T18:58:41.078Z,15.27
2023-01-29T19:01:12.111Z,14.77
2023-01-29T19:03:41.838Z,12.87
2023-01-29T19:06:12.447Z,14.73
2023-01-29T19:08:43.065Z,14.80
2023-01-29T19:11:13.123Z,15.30
2023-01-29T19:13:42.871Z,14.93
2023-01-29T19:16:13.563Z,15.23
2023-01-29T19:18:42.468Z,14.50
2023-01-29T19:21:13.414Z,15.77
2023-01-29T19:23:43.106Z,15.50
2023-01-29T19:26:14.134Z,15.60
2023-01-29T19:28:43.010Z,15.27
2023-01-29T19:31:11.517Z,15.40
2023-01-29T19:33:40.725Z,14.97
2023-01-29T19:36:10.366Z,15.00
2023-01-29T19:38:39.926Z,15.00
2023-01-29T19:41:10.003Z,16.17
2023-01-29T19:43:42.266Z,14.80
2023-01-29T19:46:13.055Z,15.27
2023-01-29T19:48:41.722Z,14.77
2023-01-29T19:51:12.247Z,15.17
2023-01-29T19:53:44.267Z,15.33
2023-01-29T19:56:15.954Z,16.37
2023-01-29T19:58:46.134Z,16.23
2023-01-29T20:01:18.179Z,16.47
2023-01-29T20:03:48.498Z,16.23
2023-01-29T20:06:21.272Z,16.97
2023-01-29T20:08:49.695Z,16.47
2023-01-29T20:11:24.863Z,15.57
2023-01-29T20:13:55.042Z,15.70
2023-01-29T20:16:24.585Z,17.03
2023-01-29T20:18:53.378Z,16.17
2023-01-29T20:21:23.027Z,15.23
2023-01-29T20:23:52.992Z,14.60
2023-01-29T20:26:22.170Z,15.27
2023-01-29T20:28:51.227Z,15.33
2023-01-29T20:31:21.603Z,14.70
2023-01-29T20:33:50.644Z,15.37
2023-01-29T20:36:19.567Z,15.37
2023-01-29T20:38:48.092Z,14.70
2023-01-29T20:41:18.652Z,14.83
2023-01-29T20:43:50.220Z,14.47
2023-01-29T20:46:21.825Z,15.17
2023-01-29T20:48:53.189Z,15.57
2023-01-29T20:51:21.944Z,14.43
2023-01-29T20:53:50.356Z,15.17
2023-01-29T20:56:23.706Z,13.93
2023-01-29T20:59:05.194Z,13.87
2023-01-29T21:01:35.349Z,13.87
2023-01-29T21:04:04.142Z,13.23
2023-01-29T21:06:33.072Z,14.23
2023-01-29T21:09:01.554Z,15.00
2023-01-29T21:11:29.967Z,14.47
2023-01-29T21:14:05.780Z,14.17
2023-01-29T21:16:35.943Z,14.87
2023-01-29T21:19:04.504Z,13.40
2023-01-29T21:21:32.948Z,15.67
2023-01-29T21:24:01.406Z,14.63
2023-01-29T21:26:29.929Z,13.50
2023-01-29T21:28:58.433Z,14.57
2023-01-29T21:31:26.942Z,14.57
2023-01-29T21:33:57.065Z,14.10
2023-01-29T21:36:25.464Z,14.77
2023-01-29T21:38:53.932Z,14.23
2023-01-29T21:41:43.852Z,13.97
2023-01-29T21:44:11.707Z,14.63
2023-01-29T21:46:40.235Z,14.27
2023-01-29T21:49:10.084Z,14.00
2023-01-29T21:51:38.445Z,14.20
2023-01-29T21:54:07.074Z,13.80
2023-01-29T21:56:35.572Z,14.07
2023-01-29T21:59:04.022Z,13.80
2023-01-29T22:01:37.643Z,14.03
2023-01-29T22:04:08.305Z,15.50
2023-01-29T22:06:38.125Z,14.50
2023-01-29T22:09:07.140Z,14.73
2023-01-29T22:11:35.864Z,13.67
2023-01-29T22:14:04.250Z,14.83
2023-01-29T22:16:32.619Z,14.43
2023-01-29T22:19:01.414Z,15.27
2023-01-29T22:21:29.846Z,15.50
2023-01-29T22:23:59.565Z,14.90
2023-01-29T22:26:29.679Z,14.47
2023-01-29T22:28:58.096Z,14.30
2023-01-29T22:31:26.559Z,15.10
2023-01-29T22:33:58.741Z,14.43
2023-01-29T22:36:27.198Z,15.10
2023-01-29T22:38:55.621Z,15.23
2023-01-29T22:41:25.525Z,15.23
2023-01-29T22:43:53.934Z,14.93
2023-01-29T22:46:22.823Z,14.97
2023-01-29T22:48:51.264Z,14.77
2023-01-29T22:51:20.705Z,14.83
2023-01-29T22:53:53.599Z,14.27
2023-01-29T22:56:26.629Z,14.17
2023-01-29T22:58:57.081Z,14.27
2023-01-29T23:01:27.908Z,15.23
2023-01-29T23:03:56.678Z,15.47
2023-01-29T23:06:25.577Z,15.20
2023-01-29T23:08:53.978Z,15.40
2023-01-29T23:11:24.399Z,14.83
2023-01-29T23:13:55.909Z,14.63
2023-01-29T23:16:28.234Z,14.87
2023-01-29T23:18:57.853Z,15.20
2023-01-29T23:21:27.727Z,15.73
2023-01-29T23:23:58.425Z,14.73
2023-01-29T23:29:11.267Z,14.63
2023-01-29T23:32:11.023Z,15.43
2023-01-29T23:34:40.006Z,14.37
2023-01-29T23:37:08.519Z,15.40
2023-01-29T23:39:36.974Z,14.40
2023-01-29T23:42:06.313Z,14.93
2023-01-29T23:44:55.039Z,13.73
2023-01-29T23:47:25.818Z,15.10
2023-01-29T23:49:54.382Z,13.23
2023-01-29T23:52:22.836Z,14.73
2023-01-29T23:54:51.351Z,13.37
2023-01-29T23:57:19.767Z,13.77
2023-01-29T23:59:48.202Z,13.93
